CW1906 Weather Reports


Display with metric or nautical units.
time (UTC)temp
F
wind
direction
speed
MPH
gust
MPH
rain 1hr
in
rain 24hr
in
rain mn
in
humidity
%
barometer
mb
20200709230313 88 157 2.0 4.0 0.00 0.00 0.00 65 1009.8
20200709224819 89 146 2.0 4.0 0.00 0.00 0.00 63 1010.0
20200709223326 90 201 3.0 5.0 0.00 0.00 0.00 62 1010.3
20200709221831 90 200 2.0 3.0 0.00 0.00 0.00 64 1010.4
20200709220319 90 208 2.0 4.0 0.00 0.00 0.00 62 1010.5
20200709214824 90 176 2.0 5.0 0.00 0.00 0.00 60 1010.6
20200709213333 91 228 3.0 5.0 0.00 0.00 0.00 59 1010.7
20200709211825 91 181 4.0 7.0 0.00 0.00 0.00 56 1010.6
20200709210315 92 202 2.0 6.0 0.00 0.00 0.00 57 1010.8
20200709204818 92 191 3.0 6.0 0.00 0.00 0.00 57 1010.8
20200709203327 92 188 3.0 6.0 0.00 0.00 0.00 57 1011.0
20200709201831 92 207 3.0 7.0 0.00 0.00 0.00 57 1011.0
20200709200320 91 184 3.0 6.0 0.00 0.00 0.00 58 1011.2
20200709194824 92 188 3.0 7.0 0.00 0.00 0.00 57 1011.2
20200709193313 92 201 2.0 5.0 0.00 0.00 0.00 58 1011.2
20200709191817 92 189 3.0 6.0 0.00 0.00 0.00 58 1011.5
20200709190322 91 199 3.0 6.0 0.00 0.00 0.00 58 1011.8
20200709184830 91 200 3.0 7.0 0.00 0.11 0.00 57 1011.9
20200709183315 91 224 3.0 6.0 0.00 0.11 0.00 57 1011.8
20200709181823 91 176 3.0 5.0 0.00 0.11 0.00 59 1011.9
20200709180327 90 212 2.0 5.0 0.00 0.11 0.00 63 1011.9
20200709174815 89 160 4.0 6.0 0.00 0.11 0.00 61 1012.1
20200709173320 90 210 2.0 6.0 0.00 0.11 0.00 61 1012.0
20200709171828 90 192 5.0 8.0 0.00 0.11 0.00 62 1012.3
20200709170313 89 210 2.0 4.0 0.00 0.11 0.00 66 1012.3
20200709164821 89 177 2.0 6.0 0.00 0.11 0.00 67 1012.5
20200709163326 89 167 3.0 4.0 0.00 0.11 0.00 69 1012.5
20200709161814 88 156 3.0 5.0 0.00 0.11 0.00 69 1012.8
20200709160319 87 195 4.0 6.0 0.00 0.11 0.00 71 1012.7
20200709154825 86 156 3.0 6.0 0.00 0.11 0.00 73 1012.7
20200709153331 85 193 3.0 7.0 0.00 0.11 0.00 74 1012.8
20200709151818 85 166 2.0 4.0 0.00 0.11 0.00 77 1012.8
20200709150323 83 202 2.0 4.0 0.00 0.11 0.00 79 1012.7
20200709144831 82 173 2.0 3.0 0.00 0.11 0.00 82 1012.7
20200709143316 81 181 2.0 3.0 0.00 0.11 0.00 83 1013.0
20200709141824 80 194 2.0 4.0 0.00 0.11 0.00 84 1013.4
20200709140329 79 153 2.0 3.0 0.00 0.11 0.00 87 1013.4
20200709134817 78 160 1.0 3.0 0.00 0.11 0.00 87 1013.6
20200709133321 79 158 2.0 3.0 0.00 0.11 0.00 87 1013.7
20200709131829 78 155 2.0 2.0 0.00 0.11 0.00 87 1013.7
20200709130314 78 210 1.0 2.0 0.00 0.11 0.00 88 1013.8
20200709124822 77 156 1.0 2.0 0.00 0.11 0.00 91 1013.8
20200709123327 76 177 1.0 1.0 0.00 0.11 0.00 91 1013.6
20200709121815 75 177 0.0 1.0 0.00 0.11 0.00 94 1013.7
20200709120320 73 177 0.0 1.0 0.00 0.11 0.00 95 1013.7
20200709114828 73 177 0.0 1.0 0.00 0.11 0.00 95 1013.5
20200709113313 72 178 0.0 1.0 0.00 0.11 0.00 96 1013.7
20200709111821 71 175 0.0 0.0 0.00 0.11 0.00 97 1013.4
20200709110326 71 175 0.0 0.0 0.00 0.11 0.00 96 1013.2
20200709104814 71 175 0.0 1.0 0.00 0.11 0.00 96 1013.2
20200709103319 71 175 0.0 0.0 0.00 0.11 0.00 96 1013.3
20200709101823 71 175 0.0 0.0 0.00 0.11 0.00 95 1013.2
20200709100332 71 175 0.0 0.0 0.00 0.11 0.00 95 1013.0
20200709094816 72 175 0.0 1.0 0.00 0.11 0.00 95 1012.8
20200709093325 72 175 1.0 1.0 0.00 0.11 0.00 95 1012.7
20200709090318 73 175 0.0 1.0 0.00 0.11 0.00 93 1012.8
20200709084822 73 175 1.0 2.0 0.00 0.11 0.00 94 1012.6
20200709083331 72 165 1.0 2.0 0.00 0.11 0.00 96 1012.6
20200709081815 72 147 0.0 0.0 0.00 0.11 0.00 95 1012.7
20200709080324 73 147 0.0 0.0 0.00 0.11 0.00 95 1012.6
20200709074826 73 148 1.0 1.0 0.00 0.11 0.00 96 1012.5
20200709073315 73 146 0.0 1.0 0.00 0.11 0.00 95 1012.4
20200709071819 73 147 0.0 1.0 0.00 0.11 0.00 96 1012.5
20200709070328 73 146 1.0 1.0 0.00 0.11 0.00 95 1012.6
20200709064832 74 147 1.0 1.0 0.00 0.11 0.00 96 1012.5
20200709063321 73 147 0.0 2.0 0.00 0.11 0.00 96 1012.6
20200709061825 74 169 0.0 1.0 0.00 0.11 0.00 94 1012.5
20200709060314 74 170 0.0 1.0 0.00 0.11 0.00 94 1012.4
20200709054818 75 169 0.0 1.0 0.00 0.11 0.00 93 1012.5
20200709053327 75 169 0.0 1.0 0.00 0.11 0.00 94 1012.4
20200709051830 75 170 1.0 2.0 0.00 0.11 0.00 95 1012.6
20200709050318 74 167 0.0 1.0 0.00 0.11 0.00 96 1012.7
20200709044822 75 167 1.0 1.0 0.00 0.11 0.11 96 1012.9
20200709043330 74 148 0.0 0.0 0.00 0.11 0.11 95 1013.1
20200709041815 75 148 0.0 1.0 0.00 0.11 0.11 96 1013.1
20200709040325 74 148 0.0 1.0 0.00 0.11 0.11 95 1013.3
20200709034827 75 148 0.0 0.0 0.00 0.11 0.11 95 1013.3
20200709033318 75 148 0.0 0.0 0.00 0.11 0.11 95 1013.3
20200709031821 75 148 0.0 0.0 0.00 0.11 0.11 94 1013.3
20200709030329 75 148 0.0 0.0 0.00 0.11 0.11 94 1013.3
20200709024813 76 148 0.0 0.0 0.00 0.11 0.11 94 1013.2
20200709023323 76 148 0.0 0.0 0.00 0.11 0.11 93 1013.2
20200709021826 77 148 0.0 0.0 0.00 0.11 0.11 93 1012.9
20200709020316 77 148 0.0 0.0 0.00 0.11 0.11 92 1012.9
20200709014819 78 148 0.0 0.0 0.00 0.11 0.11 91 1012.6
20200709013324 79 148 0.0 0.0 0.00 0.11 0.11 89 1012.7
20200709011812 79 148 0.0 0.0 0.00 0.11 0.11 89 1012.9
20200709010318 80 148 0.0 0.0 0.00 0.11 0.11 88 1012.9
20200709004825 80 148 0.0 0.0 0.00 0.11 0.11 86 1013.0
20200709003330 81 148 0.0 0.0 0.00 0.11 0.11 85 1012.8
20200709001818 82 148 0.0 0.0 0.00 0.11 0.11 82 1012.7
20200709000323 82 148 0.0 0.0 0.00 0.11 0.11 80 1012.6
20200708234832 83 148 0.0 1.0 0.00 0.11 0.11 78 1012.7
20200708233316 84 149 1.0 2.0 0.00 0.11 0.11 75 1012.7
20200708231824 85 157 2.0 4.0 0.00 0.11 0.11 74 1012.8